sensor_id;sensor_type;location;lat;lon;timestamp;P1;durP1;ratioP1;P2;durP2;ratioP2
8353;SDS011;4656;48.090;11.498;2024-03-02T00:00:35;13.35;;;9.30;;
8353;SDS011;4656;48.090;11.498;2024-03-02T00:02:40;15.52;;;9.77;;
8353;SDS011;4656;48.090;11.498;2024-03-02T00:04:44;12.82;;;8.82;;
8353;SDS011;4656;48.090;11.498;2024-03-02T00:06:46;14.05;;;9.80;;
8353;SDS011;4656;48.090;11.498;2024-03-02T00:08:48;13.73;;;9.55;;
8353;SDS011;4656;48.090;11.498;2024-03-02T00:10:50;12.95;;;9.07;;
8353;SDS011;4656;48.090;11.498;2024-03-02T00:12:52;12.88;;;9.23;;
8353;SDS011;4656;48.090;11.498;2024-03-02T00:14:57;15.95;;;10.05;;
8353;SDS011;4656;48.090;11.498;2024-03-02T00:17:00;15.18;;;10.50;;
8353;SDS011;4656;48.090;11.498;2024-03-02T00:19:04;15.05;;;10.20;;
8353;SDS011;4656;48.090;11.498;2024-03-02T00:21:07;17.02;;;9.80;;
8353;SDS011;4656;48.090;11.498;2024-03-02T00:23:09;19.17;;;10.10;;
8353;SDS011;4656;48.090;11.498;2024-03-02T00:25:12;15.65;;;10.68;;
8353;SDS011;4656;48.090;11.498;2024-03-02T00:27:14;15.77;;;10.30;;
8353;SDS011;4656;48.090;11.498;2024-03-02T00:29:17;16.55;;;10.40;;
8353;SDS011;4656;48.090;11.498;2024-03-02T00:31:20;15.93;;;10.65;;
8353;SDS011;4656;48.090;11.498;2024-03-02T00:33:23;16.45;;;10.13;;
8353;SDS011;4656;48.090;11.498;2024-03-02T00:35:26;13.38;;;9.55;;
8353;SDS011;4656;48.090;11.498;2024-03-02T00:37:28;15.82;;;10.68;;
8353;SDS011;4656;48.090;11.498;2024-03-02T00:39:31;18.23;;;10.43;;
8353;SDS011;4656;48.090;11.498;2024-03-02T00:41:32;18.40;;;10.80;;
8353;SDS011;4656;48.090;11.498;2024-03-02T00:43:38;19.08;;;10.98;;
8353;SDS011;4656;48.090;11.498;2024-03-02T00:45:41;15.68;;;9.73;;
8353;SDS011;4656;48.090;11.498;2024-03-02T00:47:43;15.07;;;8.93;;
8353;SDS011;4656;48.090;11.498;2024-03-02T00:49:45;13.27;;;9.60;;
8353;SDS011;4656;48.090;11.498;2024-03-02T00:51:50;13.68;;;9.23;;
8353;SDS011;4656;48.090;11.498;2024-03-02T00:53:53;14.07;;;9.70;;
8353;SDS011;4656;48.090;11.498;2024-03-02T00:55:56;12.75;;;9.07;;
8353;SDS011;4656;48.090;11.498;2024-03-02T00:57:57;12.85;;;9.32;;
8353;SDS011;4656;48.090;11.498;2024-03-02T00:59:59;16.13;;;9.07;;
8353;SDS011;4656;48.090;11.498;2024-03-02T01:02:02;13.65;;;9.05;;
8353;SDS011;4656;48.090;11.498;2024-03-02T01:04:04;12.20;;;8.32;;
8353;SDS011;4656;48.090;11.498;2024-03-02T01:06:05;14.43;;;9.73;;
8353;SDS011;4656;48.090;11.498;2024-03-02T01:08:09;12.95;;;9.48;;
8353;SDS011;4656;48.090;11.498;2024-03-02T01:10:12;14.05;;;9.32;;
8353;SDS011;4656;48.090;11.498;2024-03-02T01:12:14;12.35;;;9.00;;
8353;SDS011;4656;48.090;11.498;2024-03-02T01:14:16;12.13;;;8.52;;
8353;SDS011;4656;48.090;11.498;2024-03-02T01:16:18;11.80;;;8.20;;
8353;SDS011;4656;48.090;11.498;2024-03-02T01:18:19;13.97;;;9.10;;
8353;SDS011;4656;48.090;11.498;2024-03-02T01:20:22;13.73;;;8.85;;
8353;SDS011;4656;48.090;11.498;2024-03-02T01:22:24;13.30;;;9.02;;
8353;SDS011;4656;48.090;11.498;2024-03-02T01:24:28;12.88;;;8.60;;
8353;SDS011;4656;48.090;11.498;2024-03-02T01:26:30;15.50;;;9.13;;
8353;SDS011;4656;48.090;11.498;2024-03-02T01:28:32;15.90;;;9.40;;
8353;SDS011;4656;48.090;11.498;2024-03-02T01:30:34;13.35;;;9.20;;
8353;SDS011;4656;48.090;11.498;2024-03-02T01:32:37;12.27;;;9.20;;
8353;SDS011;4656;48.090;11.498;2024-03-02T01:34:39;13.13;;;9.23;;
8353;SDS011;4656;48.090;11.498;2024-03-02T01:36:41;12.73;;;8.73;;
8353;SDS011;4656;48.090;11.498;2024-03-02T01:38:43;14.10;;;9.15;;
8353;SDS011;4656;48.090;11.498;2024-03-02T01:40:47;12.52;;;8.85;;
8353;SDS011;4656;48.090;11.498;2024-03-02T01:42:49;14.27;;;9.82;;
8353;SDS011;4656;48.090;11.498;2024-03-02T01:44:51;18.08;;;11.25;;
8353;SDS011;4656;48.090;11.498;2024-03-02T01:46:53;19.35;;;10.65;;
8353;SDS011;4656;48.090;11.498;2024-03-02T01:48:56;15.30;;;9.80;;
8353;SDS011;4656;48.090;11.498;2024-03-02T01:50:58;17.08;;;10.82;;
8353;SDS011;4656;48.090;11.498;2024-03-02T01:53:00;15.88;;;10.90;;
8353;SDS011;4656;48.090;11.498;2024-03-02T01:55:03;16.52;;;9.77;;
8353;SDS011;4656;48.090;11.498;2024-03-02T01:57:05;14.07;;;9.35;;
8353;SDS011;4656;48.090;11.498;2024-03-02T01:59:07;14.18;;;9.50;;
8353;SDS011;4656;48.090;11.498;2024-03-02T02:01:10;15.85;;;10.10;;
8353;SDS011;4656;48.090;11.498;2024-03-02T02:03:12;14.35;;;9.38;;
8353;SDS011;4656;48.090;11.498;2024-03-02T02:05:14;14.80;;;9.53;;
8353;SDS011;4656;48.090;11.498;2024-03-02T02:07:16;16.20;;;10.30;;
8353;SDS011;4656;48.090;11.498;2024-03-02T02:09:18;17.95;;;10.85;;
8353;SDS011;4656;48.090;11.498;2024-03-02T02:11:19;14.20;;;9.33;;
8353;SDS011;4656;48.090;11.498;2024-03-02T02:13:22;13.65;;;9.13;;
8353;SDS011;4656;48.090;11.498;2024-03-02T02:15:25;13.82;;;9.05;;
8353;SDS011;4656;48.090;11.498;2024-03-02T02:17:27;13.52;;;9.05;;
8353;SDS011;4656;48.090;11.498;2024-03-02T02:19:29;14.55;;;8.93;;
8353;SDS011;4656;48.090;11.498;2024-03-02T02:21:32;14.40;;;9.30;;
8353;SDS011;4656;48.090;11.498;2024-03-02T02:23:34;14.70;;;9.65;;
8353;SDS011;4656;48.090;11.498;2024-03-02T02:25:36;11.98;;;7.93;;
8353;SDS011;4656;48.090;11.498;2024-03-02T02:27:39;12.10;;;8.10;;
8353;SDS011;4656;48.090;11.498;2024-03-02T02:29:41;11.18;;;7.90;;
8353;SDS011;4656;48.090;11.498;2024-03-02T02:31:43;12.68;;;8.38;;
8353;SDS011;4656;48.090;11.498;2024-03-02T02:33:45;13.68;;;8.73;;
8353;SDS011;4656;48.090;11.498;2024-03-02T02:35:48;14.82;;;8.73;;
8353;SDS011;4656;48.090;11.498;2024-03-02T02:37:51;11.88;;;8.10;;
8353;SDS011;4656;48.090;11.498;2024-03-02T02:39:54;12.27;;;8.13;;
8353;SDS011;4656;48.090;11.498;2024-03-02T02:41:55;11.60;;;7.63;;
8353;SDS011;4656;48.090;11.498;2024-03-02T02:43:57;13.32;;;7.68;;
8353;SDS011;4656;48.090;11.498;2024-03-02T02:45:59;13.40;;;8.57;;
8353;SDS011;4656;48.090;11.498;2024-03-02T02:48:01;13.45;;;8.50;;
8353;SDS011;4656;48.090;11.498;2024-03-02T02:50:04;13.88;;;8.50;;
8353;SDS011;4656;48.090;11.498;2024-03-02T02:52:08;15.23;;;8.75;;
8353;SDS011;4656;48.090;11.498;2024-03-02T02:54:12;15.80;;;9.38;;
8353;SDS011;4656;48.090;11.498;2024-03-02T02:56:14;13.65;;;8.63;;
8353;SDS011;4656;48.090;11.498;2024-03-02T02:58:16;14.52;;;8.55;;
8353;SDS011;4656;48.090;11.498;2024-03-02T03:00:18;11.13;;;8.07;;
8353;SDS011;4656;48.090;11.498;2024-03-02T03:02:22;15.35;;;9.05;;
8353;SDS011;4656;48.090;11.498;2024-03-02T03:04:23;14.27;;;8.93;;
8353;SDS011;4656;48.090;11.498;2024-03-02T03:06:25;14.05;;;8.95;;
8353;SDS011;4656;48.090;11.498;2024-03-02T03:08:26;16.67;;;9.65;;
8353;SDS011;4656;48.090;11.498;2024-03-02T03:10:30;15.40;;;9.47;;
8353;SDS011;4656;48.090;11.498;2024-03-02T03:12:33;18.73;;;10.77;;
8353;SDS011;4656;48.090;11.498;2024-03-02T03:14:35;15.15;;;9.55;;
8353;SDS011;4656;48.090;11.498;2024-03-02T03:16:37;16.02;;;9.73;;
8353;SDS011;4656;48.090;11.498;2024-03-02T03:18:40;15.52;;;9.65;;
8353;SDS011;4656;48.090;11.498;2024-03-02T03:20:42;16.23;;;9.80;;
8353;SDS011;4656;48.090;11.498;2024-03-02T03:22:43;14.85;;;9.65;;
8353;SDS011;4656;48.090;11.498;2024-03-02T03:24:45;16.90;;;9.40;;
8353;SDS011;4656;48.090;11.498;2024-03-02T03:26:48;13.93;;;9.20;;
8353;SDS011;4656;48.090;11.498;2024-03-02T03:28:50;17.50;;;9.60;;
8353;SDS011;4656;48.090;11.498;2024-03-02T03:30:52;17.48;;;9.77;;
8353;SDS011;4656;48.090;11.498;2024-03-02T03:32:54;16.00;;;9.77;;
8353;SDS011;4656;48.090;11.498;2024-03-02T03:34:56;16.15;;;9.52;;
8353;SDS011;4656;48.090;11.498;2024-03-02T03:36:58;18.30;;;9.80;;
8353;SDS011;4656;48.090;11.498;2024-03-02T03:38:59;18.00;;;10.38;;
8353;SDS011;4656;48.090;11.498;2024-03-02T03:41:03;15.60;;;9.27;;
8353;SDS011;4656;48.090;11.498;2024-03-02T03:43:07;16.30;;;9.57;;
8353;SDS011;4656;48.090;11.498;2024-03-02T03:45:09;16.88;;;10.20;;
8353;SDS011;4656;48.090;11.498;2024-03-02T03:47:10;17.42;;;9.75;;
8353;SDS011;4656;48.090;11.498;2024-03-02T03:49:12;16.65;;;9.63;;
8353;SDS011;4656;48.090;11.498;2024-03-02T03:51:14;17.90;;;9.77;;
8353;SDS011;4656;48.090;11.498;2024-03-02T03:53:16;15.68;;;8.90;;
8353;SDS011;4656;48.090;11.498;2024-03-02T03:55:18;16.45;;;9.95;;
8353;SDS011;4656;48.090;11.498;2024-03-02T03:57:21;16.60;;;9.88;;
8353;SDS011;4656;48.090;11.498;2024-03-02T03:59:23;18.60;;;9.70;;
8353;SDS011;4656;48.090;11.498;2024-03-02T04:01:25;17.73;;;10.45;;
8353;SDS011;4656;48.090;11.498;2024-03-02T04:03:27;16.73;;;9.57;;
8353;SDS011;4656;48.090;11.498;2024-03-02T04:05:30;16.98;;;10.02;;
8353;SDS011;4656;48.090;11.498;2024-03-02T04:07:32;15.73;;;10.38;;
8353;SDS011;4656;48.090;11.498;2024-03-02T04:09:33;16.20;;;10.23;;
8353;SDS011;4656;48.090;11.498;2024-03-02T04:11:35;17.98;;;10.77;;
8353;SDS011;4656;48.090;11.498;2024-03-02T04:13:37;17.23;;;10.23;;
8353;SDS011;4656;48.090;11.498;2024-03-02T04:15:42;18.75;;;10.82;;
8353;SDS011;4656;48.090;11.498;2024-03-02T04:17:44;19.35;;;10.38;;
8353;SDS011;4656;48.090;11.498;2024-03-02T04:19:45;18.88;;;11.52;;
8353;SDS011;4656;48.090;11.498;2024-03-02T04:21:48;19.20;;;10.95;;
8353;SDS011;4656;48.090;11.498;2024-03-02T04:23:50;18.17;;;11.15;;
8353;SDS011;4656;48.090;11.498;2024-03-02T04:25:52;19.58;;;11.27;;
8353;SDS011;4656;48.090;11.498;2024-03-02T04:27:54;18.90;;;10.35;;
8353;SDS011;4656;48.090;11.498;2024-03-02T04:29:57;20.48;;;11.23;;
8353;SDS011;4656;48.090;11.498;2024-03-02T04:31:59;18.73;;;11.20;;
8353;SDS011;4656;48.090;11.498;2024-03-02T04:34:01;19.02;;;11.75;;
8353;SDS011;4656;48.090;11.498;2024-03-02T04:36:04;19.13;;;11.30;;
8353;SDS011;4656;48.090;11.498;2024-03-02T04:38:08;19.23;;;11.13;;
8353;SDS011;4656;48.090;11.498;2024-03-02T04:40:11;21.50;;;11.90;;
8353;SDS011;4656;48.090;11.498;2024-03-02T04:42:13;23.23;;;12.15;;
8353;SDS011;4656;48.090;11.498;2024-03-02T04:44:15;22.88;;;11.75;;
8353;SDS011;4656;48.090;11.498;2024-03-02T04:46:17;23.03;;;11.87;;
8353;SDS011;4656;48.090;11.498;2024-03-02T04:48:21;19.95;;;11.65;;
8353;SDS011;4656;48.090;11.498;2024-03-02T04:50:22;20.73;;;11.10;;
8353;SDS011;4656;48.090;11.498;2024-03-02T04:52:24;19.30;;;10.95;;
8353;SDS011;4656;48.090;11.498;2024-03-02T04:54:26;18.55;;;11.48;;
8353;SDS011;4656;48.090;11.498;2024-03-02T04:56:28;20.63;;;11.20;;
8353;SDS011;4656;48.090;11.498;2024-03-02T04:58:44;20.35;;;11.25;;
8353;SDS011;4656;48.090;11.498;2024-03-02T05:00:46;22.63;;;11.88;;
8353;SDS011;4656;48.090;11.498;2024-03-02T05:02:47;19.35;;;11.27;;
8353;SDS011;4656;48.090;11.498;2024-03-02T05:04:51;19.35;;;11.60;;
8353;SDS011;4656;48.090;11.498;2024-03-02T05:06:53;21.20;;;11.30;;
8353;SDS011;4656;48.090;11.498;2024-03-02T05:08:57;22.88;;;12.02;;
8353;SDS011;4656;48.090;11.498;2024-03-02T05:10:59;22.75;;;11.45;;
8353;SDS011;4656;48.090;11.498;2024-03-02T05:13:21;21.90;;;11.95;;
8353;SDS011;4656;48.090;11.498;2024-03-02T05:15:22;19.67;;;11.23;;
8353;SDS011;4656;48.090;11.498;2024-03-02T05:17:25;20.65;;;11.63;;
8353;SDS011;4656;48.090;11.498;2024-03-02T05:19:27;21.75;;;11.23;;
8353;SDS011;4656;48.090;11.498;2024-03-02T05:21:30;21.77;;;11.98;;
8353;SDS011;4656;48.090;11.498;2024-03-02T05:23:31;22.85;;;12.00;;
8353;SDS011;4656;48.090;11.498;2024-03-02T05:25:34;20.60;;;11.90;;
8353;SDS011;4656;48.090;11.498;2024-03-02T05:27:36;24.87;;;12.43;;
8353;SDS011;4656;48.090;11.498;2024-03-02T05:29:38;23.05;;;12.80;;
8353;SDS011;4656;48.090;11.498;2024-03-02T05:31:40;23.85;;;13.63;;
8353;SDS011;4656;48.090;11.498;2024-03-02T05:33:43;24.45;;;12.50;;
8353;SDS011;4656;48.090;11.498;2024-03-02T05:35:45;27.13;;;12.45;;
8353;SDS011;4656;48.090;11.498;2024-03-02T05:37:48;24.73;;;12.73;;
8353;SDS011;4656;48.090;11.498;2024-03-02T05:39:50;31.00;;;12.70;;
8353;SDS011;4656;48.090;11.498;2024-03-02T05:41:51;25.57;;;12.97;;
8353;SDS011;4656;48.090;11.498;2024-03-02T05:43:53;24.95;;;12.77;;
8353;SDS011;4656;48.090;11.498;2024-03-02T05:45:55;28.83;;;12.80;;
8353;SDS011;4656;48.090;11.498;2024-03-02T05:47:57;24.17;;;13.20;;
8353;SDS011;4656;48.090;11.498;2024-03-02T05:49:58;24.63;;;12.07;;
8353;SDS011;4656;48.090;11.498;2024-03-02T05:52:00;26.23;;;13.23;;
8353;SDS011;4656;48.090;11.498;2024-03-02T05:54:04;29.67;;;13.13;;
8353;SDS011;4656;48.090;11.498;2024-03-02T05:56:06;21.95;;;12.38;;
8353;SDS011;4656;48.090;11.498;2024-03-02T05:58:08;21.10;;;12.05;;
8353;SDS011;4656;48.090;11.498;2024-03-02T06:00:22;25.67;;;12.02;;
8353;SDS011;4656;48.090;11.498;2024-03-02T06:02:24;24.90;;;12.85;;
8353;SDS011;4656;48.090;11.498;2024-03-02T06:04:26;32.03;;;13.57;;
8353;SDS011;4656;48.090;11.498;2024-03-02T06:06:28;26.73;;;12.85;;
8353;SDS011;4656;48.090;11.498;2024-03-02T06:08:32;26.00;;;12.63;;
8353;SDS011;4656;48.090;11.498;2024-03-02T06:10:36;26.23;;;14.00;;
8353;SDS011;4656;48.090;11.498;2024-03-02T06:12:38;28.60;;;13.50;;
8353;SDS011;4656;48.090;11.498;2024-03-02T06:14:40;27.75;;;13.77;;
8353;SDS011;4656;48.090;11.498;2024-03-02T06:16:43;25.42;;;13.38;;
8353;SDS011;4656;48.090;11.498;2024-03-02T06:18:45;24.08;;;13.25;;
8353;SDS011;4656;48.090;11.498;2024-03-02T06:20:47;26.92;;;13.48;;
8353;SDS011;4656;48.090;11.498;2024-03-02T06:22:49;31.27;;;14.48;;
8353;SDS011;4656;48.090;11.498;2024-03-02T06:24:50;28.48;;;13.50;;
8353;SDS011;4656;48.090;11.498;2024-03-02T06:26:53;26.08;;;13.27;;
8353;SDS011;4656;48.090;11.498;2024-03-02T06:28:56;23.45;;;12.90;;
8353;SDS011;4656;48.090;11.498;2024-03-02T06:30:58;28.02;;;13.50;;
8353;SDS011;4656;48.090;11.498;2024-03-02T06:33:00;25.17;;;12.75;;
8353;SDS011;4656;48.090;11.498;2024-03-02T06:35:04;27.65;;;12.77;;
8353;SDS011;4656;48.090;11.498;2024-03-02T06:37:10;24.38;;;13.02;;
8353;SDS011;4656;48.090;11.498;2024-03-02T06:39:13;24.10;;;12.88;;
8353;SDS011;4656;48.090;11.498;2024-03-02T06:41:15;23.73;;;12.18;;
8353;SDS011;4656;48.090;11.498;2024-03-02T06:43:18;30.80;;;13.57;;
8353;SDS011;4656;48.090;11.498;2024-03-02T06:45:23;28.77;;;13.13;;
8353;SDS011;4656;48.090;11.498;2024-03-02T06:47:25;25.50;;;14.03;;
8353;SDS011;4656;48.090;11.498;2024-03-02T06:49:27;25.55;;;13.10;;
8353;SDS011;4656;48.090;11.498;2024-03-02T06:51:29;27.50;;;13.95;;
8353;SDS011;4656;48.090;11.498;2024-03-02T06:53:31;28.25;;;13.73;;
8353;SDS011;4656;48.090;11.498;2024-03-02T06:55:34;27.60;;;14.70;;
8353;SDS011;4656;48.090;11.498;2024-03-02T06:57:36;29.73;;;13.45;;
8353;SDS011;4656;48.090;11.498;2024-03-02T06:59:39;26.95;;;13.90;;
8353;SDS011;4656;48.090;11.498;2024-03-02T07:01:40;29.30;;;13.85;;
8353;SDS011;4656;48.090;11.498;2024-03-02T07:03:43;28.02;;;13.57;;
8353;SDS011;4656;48.090;11.498;2024-03-02T07:05:45;27.90;;;14.40;;
8353;SDS011;4656;48.090;11.498;2024-03-02T07:07:48;25.90;;;13.73;;
8353;SDS011;4656;48.090;11.498;2024-03-02T07:09:50;28.73;;;14.55;;
8353;SDS011;4656;48.090;11.498;2024-03-02T07:11:52;25.10;;;14.27;;
8353;SDS011;4656;48.090;11.498;2024-03-02T07:13:54;28.08;;;14.63;;
8353;SDS011;4656;48.090;11.498;2024-03-02T07:15:58;27.25;;;14.30;;
8353;SDS011;4656;48.090;11.498;2024-03-02T07:18:29;25.35;;;14.52;;
8353;SDS011;4656;48.090;11.498;2024-03-02T07:20:31;23.50;;;13.35;;
8353;SDS011;4656;48.090;11.498;2024-03-02T07:22:33;25.92;;;13.27;;
8353;SDS011;4656;48.090;11.498;2024-03-02T07:24:40;29.40;;;14.48;;
8353;SDS011;4656;48.090;11.498;2024-03-02T07:26:42;27.70;;;14.40;;
8353;SDS011;4656;48.090;11.498;2024-03-02T07:28:44;22.70;;;13.27;;
8353;SDS011;4656;48.090;11.498;2024-03-02T07:30:46;25.35;;;14.30;;
8353;SDS011;4656;48.090;11.498;2024-03-02T07:32:51;24.20;;;13.45;;
8353;SDS011;4656;48.090;11.498;2024-03-02T07:34:53;24.25;;;14.02;;
8353;SDS011;4656;48.090;11.498;2024-03-02T07:36:55;23.95;;;13.63;;
8353;SDS011;4656;48.090;11.498;2024-03-02T07:38:57;28.70;;;14.73;;
8353;SDS011;4656;48.090;11.498;2024-03-02T07:40:59;26.65;;;14.43;;
8353;SDS011;4656;48.090;11.498;2024-03-02T07:43:00;24.98;;;14.30;;
8353;SDS011;4656;48.090;11.498;2024-03-02T07:45:02;23.40;;;13.02;;
8353;SDS011;4656;48.090;11.498;2024-03-02T07:47:04;23.40;;;13.27;;
8353;SDS011;4656;48.090;11.498;2024-03-02T07:49:07;24.17;;;12.85;;
8353;SDS011;4656;48.090;11.498;2024-03-02T07:51:09;20.23;;;12.35;;
8353;SDS011;4656;48.090;11.498;2024-03-02T07:53:12;19.02;;;11.95;;
8353;SDS011;4656;48.090;11.498;2024-03-02T07:55:14;20.35;;;11.68;;
8353;SDS011;4656;48.090;11.498;2024-03-02T07:57:16;15.98;;;11.40;;
8353;SDS011;4656;48.090;11.498;2024-03-02T07:59:18;13.82;;;9.77;;
8353;SDS011;4656;48.090;11.498;2024-03-02T08:01:22;13.38;;;9.35;;
8353;SDS011;4656;48.090;11.498;2024-03-02T08:03:24;12.88;;;9.40;;
8353;SDS011;4656;48.090;11.498;2024-03-02T08:05:27;15.02;;;10.15;;
8353;SDS011;4656;48.090;11.498;2024-03-02T08:07:28;15.53;;;10.20;;
8353;SDS011;4656;48.090;11.498;2024-03-02T08:09:30;14.88;;;10.10;;
8353;SDS011;4656;48.090;11.498;2024-03-02T08:11:32;16.93;;;10.70;;
8353;SDS011;4656;48.090;11.498;2024-03-02T08:13:35;14.73;;;10.40;;
8353;SDS011;4656;48.090;11.498;2024-03-02T08:15:37;18.73;;;10.88;;
8353;SDS011;4656;48.090;11.498;2024-03-02T08:17:39;15.00;;;9.57;;
8353;SDS011;4656;48.090;11.498;2024-03-02T08:19:44;14.52;;;9.38;;
8353;SDS011;4656;48.090;11.498;2024-03-02T08:21:49;12.17;;;9.17;;
8353;SDS011;4656;48.090;11.498;2024-03-02T08:23:51;14.25;;;9.73;;
8353;SDS011;4656;48.090;11.498;2024-03-02T08:25:53;12.60;;;9.15;;
8353;SDS011;4656;48.090;11.498;2024-03-02T08:27:56;13.57;;;9.07;;
8353;SDS011;4656;48.090;11.498;2024-03-02T08:29:58;11.13;;;8.52;;
8353;SDS011;4656;48.090;11.498;2024-03-02T08:32:00;13.32;;;9.05;;
8353;SDS011;4656;48.090;11.498;2024-03-02T08:34:02;10.90;;;8.07;;
8353;SDS011;4656;48.090;11.498;2024-03-02T08:36:04;11.70;;;8.75;;
8353;SDS011;4656;48.090;11.498;2024-03-02T08:38:07;11.93;;;7.80;;
8353;SDS011;4656;48.090;11.498;2024-03-02T08:40:10;12.00;;;7.65;;
8353;SDS011;4656;48.090;11.498;2024-03-02T08:42:12;9.98;;;7.25;;
8353;SDS011;4656;48.090;11.498;2024-03-02T08:44:14;10.32;;;7.53;;
8353;SDS011;4656;48.090;11.498;2024-03-02T08:46:16;11.13;;;7.65;;
8353;SDS011;4656;48.090;11.498;2024-03-02T08:48:18;10.18;;;7.68;;
8353;SDS011;4656;48.090;11.498;2024-03-02T08:50:21;14.57;;;9.80;;
8353;SDS011;4656;48.090;11.498;2024-03-02T08:52:23;9.15;;;7.22;;
8353;SDS011;4656;48.090;11.498;2024-03-02T08:54:25;9.27;;;7.37;;
8353;SDS011;4656;48.090;11.498;2024-03-02T08:56:28;6.88;;;5.05;;
8353;SDS011;4656;48.090;11.498;2024-03-02T08:58:30;8.38;;;6.78;;
8353;SDS011;4656;48.090;11.498;2024-03-02T09:00:32;7.90;;;5.72;;
8353;SDS011;4656;48.090;11.498;2024-03-02T09:02:34;6.40;;;5.18;;
8353;SDS011;4656;48.090;11.498;2024-03-02T09:04:35;7.20;;;5.30;;
8353;SDS011;4656;48.090;11.498;2024-03-02T09:06:38;7.25;;;5.40;;
8353;SDS011;4656;48.090;11.498;2024-03-02T09:08:41;7.35;;;6.20;;
8353;SDS011;4656;48.090;11.498;2024-03-02T09:10:44;9.15;;;7.15;;
8353;SDS011;4656;48.090;11.498;2024-03-02T09:12:46;7.93;;;6.65;;
8353;SDS011;4656;48.090;11.498;2024-03-02T09:14:48;8.52;;;7.00;;
8353;SDS011;4656;48.090;11.498;2024-03-02T09:16:50;11.00;;;7.22;;
8353;SDS011;4656;48.090;11.498;2024-03-02T09:18:53;9.40;;;7.03;;
8353;SDS011;4656;48.090;11.498;2024-03-02T09:20:55;8.07;;;7.15;;
8353;SDS011;4656;48.090;11.498;2024-03-02T09:22:57;7.87;;;6.57;;
8353;SDS011;4656;48.090;11.498;2024-03-02T09:24:58;7.55;;;6.13;;
8353;SDS011;4656;48.090;11.498;2024-03-02T09:27:01;7.32;;;6.20;;
8353;SDS011;4656;48.090;11.498;2024-03-02T09:29:04;7.80;;;6.50;;
8353;SDS011;4656;48.090;11.498;2024-03-02T09:31:06;7.47;;;6.43;;
8353;SDS011;4656;48.090;11.498;2024-03-02T09:33:08;7.15;;;6.00;;
8353;SDS011;4656;48.090;11.498;2024-03-02T09:35:10;6.32;;;5.68;;
8353;SDS011;4656;48.090;11.498;2024-03-02T09:37:13;6.22;;;5.10;;
8353;SDS011;4656;48.090;11.498;2024-03-02T09:39:15;6.25;;;5.28;;
8353;SDS011;4656;48.090;11.498;2024-03-02T09:41:18;8.27;;;5.90;;
8353;SDS011;4656;48.090;11.498;2024-03-02T09:43:21;7.07;;;5.47;;
8353;SDS011;4656;48.090;11.498;2024-03-02T09:45:24;6.82;;;5.95;;
8353;SDS011;4656;48.090;11.498;2024-03-02T09:47:26;7.43;;;5.90;;
8353;SDS011;4656;48.090;11.498;2024-03-02T09:49:28;7.28;;;5.70;;
8353;SDS011;4656;48.090;11.498;2024-03-02T09:51:31;7.57;;;5.70;;
8353;SDS011;4656;48.090;11.498;2024-03-02T09:53:33;7.68;;;5.82;;
8353;SDS011;4656;48.090;11.498;2024-03-02T09:55:36;7.22;;;5.97;;
8353;SDS011;4656;48.090;11.498;2024-03-02T09:57:40;7.97;;;5.78;;
8353;SDS011;4656;48.090;11.498;2024-03-02T09:59:44;6.87;;;5.97;;
8353;SDS011;4656;48.090;11.498;2024-03-02T10:01:56;6.78;;;5.28;;
8353;SDS011;4656;48.090;11.498;2024-03-02T10:03:58;6.55;;;5.28;;
8353;SDS011;4656;48.090;11.498;2024-03-02T10:08:18;7.80;;;4.73;;
8353;SDS011;4656;48.090;11.498;2024-03-02T10:10:20;5.72;;;4.50;;
8353;SDS011;4656;48.090;11.498;2024-03-02T10:12:22;4.78;;;4.18;;
8353;SDS011;4656;48.090;11.498;2024-03-02T10:14:24;4.75;;;4.10;;
8353;SDS011;4656;48.090;11.498;2024-03-02T10:16:28;5.38;;;4.47;;
8353;SDS011;4656;48.090;11.498;2024-03-02T10:18:29;5.70;;;4.40;;
8353;SDS011;4656;48.090;11.498;2024-03-02T10:20:31;4.82;;;4.13;;
8353;SDS011;4656;48.090;11.498;2024-03-02T10:22:33;4.55;;;3.72;;
8353;SDS011;4656;48.090;11.498;2024-03-02T10:24:36;5.35;;;4.00;;
8353;SDS011;4656;48.090;11.498;2024-03-02T10:26:39;6.63;;;4.15;;
8353;SDS011;4656;48.090;11.498;2024-03-02T10:28:45;7.18;;;4.25;;
8353;SDS011;4656;48.090;11.498;2024-03-02T10:30:48;4.30;;;3.90;;
8353;SDS011;4656;48.090;11.498;2024-03-02T10:32:54;4.63;;;4.20;;
8353;SDS011;4656;48.090;11.498;2024-03-02T10:34:56;4.70;;;4.10;;
8353;SDS011;4656;48.090;11.498;2024-03-02T10:36:58;5.78;;;4.10;;
8353;SDS011;4656;48.090;11.498;2024-03-02T10:39:01;4.75;;;4.25;;
8353;SDS011;4656;48.090;11.498;2024-03-02T10:41:04;5.65;;;4.10;;
8353;SDS011;4656;48.090;11.498;2024-03-02T10:43:06;5.03;;;4.00;;
8353;SDS011;4656;48.090;11.498;2024-03-02T10:45:09;4.65;;;3.75;;
8353;SDS011;4656;48.090;11.498;2024-03-02T10:47:12;4.95;;;3.70;;
8353;SDS011;4656;48.090;11.498;2024-03-02T10:49:15;4.13;;;3.53;;
8353;SDS011;4656;48.090;11.498;2024-03-02T10:51:17;3.83;;;3.27;;
8353;SDS011;4656;48.090;11.498;2024-03-02T10:53:19;4.10;;;3.20;;
8353;SDS011;4656;48.090;11.498;2024-03-02T10:55:21;4.50;;;3.22;;
8353;SDS011;4656;48.090;11.498;2024-03-02T10:57:24;5.00;;;3.45;;
8353;SDS011;4656;48.090;11.498;2024-03-02T10:59:29;4.03;;;3.50;;
8353;SDS011;4656;48.090;11.498;2024-03-02T11:01:34;4.88;;;3.20;;
8353;SDS011;4656;48.090;11.498;2024-03-02T11:03:37;3.50;;;3.20;;
8353;SDS011;4656;48.090;11.498;2024-03-02T11:05:43;3.88;;;3.47;;
8353;SDS011;4656;48.090;11.498;2024-03-02T11:07:44;3.50;;;3.20;;
8353;SDS011;4656;48.090;11.498;2024-03-02T11:09:54;4.50;;;3.83;;
8353;SDS011;4656;48.090;11.498;2024-03-02T11:12:00;4.57;;;3.42;;
8353;SDS011;4656;48.090;11.498;2024-03-02T11:14:03;5.00;;;3.90;;
8353;SDS011;4656;48.090;11.498;2024-03-02T11:16:09;5.85;;;3.75;;
8353;SDS011;4656;48.090;11.498;2024-03-02T11:18:14;4.57;;;3.70;;
8353;SDS011;4656;48.090;11.498;2024-03-02T11:20:16;5.77;;;4.07;;
8353;SDS011;4656;48.090;11.498;2024-03-02T11:22:21;5.15;;;4.00;;
8353;SDS011;4656;48.090;11.498;2024-03-02T11:24:33;5.28;;;4.22;;
8353;SDS011;4656;48.090;11.498;2024-03-02T11:26:36;5.90;;;4.22;;
8353;SDS011;4656;48.090;11.498;2024-03-02T11:28:40;5.50;;;4.47;;
8353;SDS011;4656;48.090;11.498;2024-03-02T11:30:48;5.97;;;4.22;;
8353;SDS011;4656;48.090;11.498;2024-03-02T11:32:54;6.97;;;4.40;;
8353;SDS011;4656;48.090;11.498;2024-03-02T11:34:56;7.95;;;4.78;;
8353;SDS011;4656;48.090;11.498;2024-03-02T11:36:59;5.20;;;3.95;;
8353;SDS011;4656;48.090;11.498;2024-03-02T11:39:01;5.82;;;4.32;;
8353;SDS011;4656;48.090;11.498;2024-03-02T11:41:07;4.90;;;4.17;;
8353;SDS011;4656;48.090;11.498;2024-03-02T11:43:09;5.75;;;4.13;;
8353;SDS011;4656;48.090;11.498;2024-03-02T11:45:11;7.78;;;4.60;;
8353;SDS011;4656;48.090;11.498;2024-03-02T11:47:14;6.05;;;3.60;;
8353;SDS011;4656;48.090;11.498;2024-03-02T11:49:15;7.72;;;4.10;;
8353;SDS011;4656;48.090;11.498;2024-03-02T11:51:22;5.75;;;4.00;;
8353;SDS011;4656;48.090;11.498;2024-03-02T11:53:24;5.63;;;4.07;;
8353;SDS011;4656;48.090;11.498;2024-03-02T11:55:30;7.05;;;4.22;;
8353;SDS011;4656;48.090;11.498;2024-03-02T11:57:32;5.30;;;4.10;;
8353;SDS011;4656;48.090;11.498;2024-03-02T11:59:33;7.15;;;4.15;;
8353;SDS011;4656;48.090;11.498;2024-03-02T12:01:35;5.10;;;4.35;;
8353;SDS011;4656;48.090;11.498;2024-03-02T12:03:37;6.72;;;4.68;;
8353;SDS011;4656;48.090;11.498;2024-03-02T12:05:40;7.75;;;4.93;;
8353;SDS011;4656;48.090;11.498;2024-03-02T12:07:42;6.20;;;4.53;;
8353;SDS011;4656;48.090;11.498;2024-03-02T12:09:44;6.75;;;5.00;;
8353;SDS011;4656;48.090;11.498;2024-03-02T12:11:48;6.82;;;4.60;;
8353;SDS011;4656;48.090;11.498;2024-03-02T12:13:52;6.30;;;4.30;;
8353;SDS011;4656;48.090;11.498;2024-03-02T12:15:56;4.80;;;3.77;;
8353;SDS011;4656;48.090;11.498;2024-03-02T12:17:59;5.47;;;4.10;;
8353;SDS011;4656;48.090;11.498;2024-03-02T12:20:01;5.60;;;4.23;;